createdAt,value
2019-06-10T00:02:23.459Z,100632.66
2019-06-10T00:04:57.616Z,100634.08
2019-06-10T00:07:31.611Z,100635.50
2019-06-10T00:10:10.637Z,100626.20
2019-06-10T00:12:42.962Z,100628.39
2019-06-10T00:15:21.412Z,100620.64
2019-06-10T00:18:16.208Z,100623.13
2019-06-10T00:20:30.598Z,100619.34
2019-06-10T00:23:05.316Z,100611.08
2019-06-10T00:25:40.577Z,100606.04
2019-06-10T00:28:13.374Z,100610.57
2019-06-10T00:30:47.331Z,100612.61
2019-06-10T00:33:21.578Z,100606.41
2019-06-10T00:35:53.928Z,100607.70
2019-06-10T00:38:26.921Z,100604.73
2019-06-10T00:41:02.320Z,100603.96
2019-06-10T00:43:35.976Z,100602.91
2019-06-10T00:46:09.571Z,100603.55
2019-06-10T00:48:43.056Z,100603.79
2019-06-10T00:51:16.171Z,100596.81
2019-06-10T00:53:51.444Z,100601.95
2019-06-10T00:56:24.209Z,100600.15
2019-06-10T00:58:57.258Z,100601.19
2019-06-10T01:01:31.240Z,100594.47
2019-06-10T01:04:06.934Z,100606.20
2019-06-10T01:06:42.301Z,100607.10
2019-06-10T01:09:16.944Z,100603.33
2019-06-10T01:11:52.001Z,100601.52
2019-06-10T01:14:25.345Z,100602.03
2019-06-10T01:16:58.506Z,100610.69
2019-06-10T01:19:32.672Z,100607.97
2019-06-10T01:22:06.087Z,100610.88
2019-06-10T01:24:40.789Z,100607.52
2019-06-10T01:27:15.080Z,100612.78
2019-06-10T01:29:51.072Z,100615.48
2019-06-10T01:32:24.047Z,100617.68
2019-06-10T01:34:57.359Z,100618.68
2019-06-10T01:37:31.080Z,100616.34
2019-06-10T01:40:07.955Z,100622.11
2019-06-10T01:42:41.397Z,100619.78
2019-06-10T01:45:15.883Z,100617.84
2019-06-10T01:47:51.092Z,100618.97
2019-06-10T01:50:24.215Z,100617.69
2019-06-10T01:52:57.380Z,100622.59
2019-06-10T01:55:31.213Z,100614.58
2019-06-10T01:58:04.325Z,100614.58
2019-06-10T02:00:58.053Z,100618.70
2019-06-10T02:03:31.613Z,100615.61
2019-06-10T02:06:05.902Z,100621.68
2019-06-10T02:08:41.679Z,100617.07
2019-06-10T02:11:16.010Z,100622.75
2019-06-10T02:13:51.520Z,100622.63
2019-06-10T02:16:25.865Z,100624.31
2019-06-10T02:19:03.387Z,100621.98
2019-06-10T02:21:34.943Z,100625.47
2019-06-10T02:24:12.555Z,100621.94
2019-06-10T02:26:43.005Z,100629.84
2019-06-10T02:29:17.242Z,100635.36
2019-06-10T02:31:52.157Z,100625.34
2019-06-10T02:34:27.542Z,100626.89
2019-06-10T02:37:04.345Z,100626.36
2019-06-10T02:39:38.929Z,100624.94
2019-06-10T02:42:21.241Z,100629.84
2019-06-10T02:44:54.109Z,100621.03
2019-06-10T02:47:33.601Z,100621.81
2019-06-10T02:50:08.821Z,100625.80
2019-06-10T02:52:44.078Z,100623.48
2019-06-10T02:55:17.457Z,100624.77
2019-06-10T02:57:53.108Z,100638.83
2019-06-10T03:00:37.012Z,100642.31
2019-06-10T03:03:00.042Z,100641.16
2019-06-10T03:05:40.503Z,100641.42
2019-06-10T03:08:09.035Z,100646.23
2019-06-10T03:10:44.242Z,100644.05
2019-06-10T03:13:17.628Z,100648.23
2019-06-10T03:15:54.914Z,100641.39
2019-06-10T03:18:28.200Z,100643.72
2019-06-10T03:21:02.643Z,100650.81
2019-06-10T03:23:35.856Z,100643.45
2019-06-10T03:26:08.921Z,100639.19
2019-06-10T03:28:42.888Z,100643.32
2019-06-10T03:31:18.764Z,100645.87
2019-06-10T03:33:54.416Z,100641.90
2019-06-10T03:36:27.327Z,100643.32
2019-06-10T03:39:02.434Z,100642.30
2019-06-10T03:41:36.181Z,100647.72
2019-06-10T03:44:09.194Z,100640.28
2019-06-10T03:46:43.144Z,100635.28
2019-06-10T03:49:17.149Z,100638.67
2019-06-10T03:51:50.301Z,100642.84
2019-06-10T03:54:27.313Z,100642.71
2019-06-10T03:56:58.305Z,100646.36
2019-06-10T03:59:32.445Z,100638.00
2019-06-10T04:02:06.740Z,100634.52
2019-06-10T04:04:39.932Z,100643.84
2019-06-10T04:07:14.271Z,100653.95
2019-06-10T04:09:46.670Z,100649.16
2019-06-10T04:12:19.549Z,100645.80
2019-06-10T04:14:52.813Z,100649.58
2019-06-10T04:17:27.349Z,100653.06
2019-06-10T04:20:09.397Z,100658.36
2019-06-10T04:22:35.782Z,100665.08
2019-06-10T04:25:08.887Z,100660.45
2019-06-10T04:27:42.567Z,100661.22
2019-06-10T04:30:17.104Z,100657.63
2019-06-10T04:32:53.177Z,100652.89
2019-06-10T04:35:27.952Z,100659.47
2019-06-10T04:38:02.546Z,100660.39
2019-06-10T04:40:35.816Z,100651.61
2019-06-10T04:43:08.983Z,100654.32
2019-06-10T04:45:43.017Z,100648.64
2019-06-10T04:48:16.267Z,100653.29
2019-06-10T04:50:49.351Z,100651.47
2019-06-10T04:53:23.759Z,100654.44
2019-06-10T04:55:57.529Z,100653.42
2019-06-10T04:58:33.081Z,100656.66
2019-06-10T05:01:05.554Z,100662.33
2019-06-10T05:03:38.702Z,100656.14
2019-06-10T05:06:12.373Z,100660.79
2019-06-10T05:08:48.278Z,100659.22
2019-06-10T05:11:24.261Z,100652.62
2019-06-10T05:13:57.250Z,100649.51
2019-06-10T05:16:32.355Z,100661.70
2019-06-10T05:19:06.899Z,100658.08
2019-06-10T05:21:42.182Z,100651.09
2019-06-10T05:24:15.913Z,100653.94
2019-06-10T05:26:48.326Z,100654.80
2019-06-10T05:29:23.522Z,100663.22
2019-06-10T05:31:56.835Z,100666.56
2019-06-10T05:34:34.334Z,100664.73
2019-06-10T05:37:06.458Z,100669.00
2019-06-10T05:39:42.265Z,100672.59
2019-06-10T05:42:14.306Z,100670.87
2019-06-10T05:44:47.480Z,100669.93
2019-06-10T05:47:23.355Z,100671.88
2019-06-10T05:49:55.386Z,100674.21
2019-06-10T05:52:45.865Z,100673.80
2019-06-10T05:55:19.234Z,100681.41
2019-06-10T05:57:54.636Z,100682.54
2019-06-10T06:00:29.344Z,100685.86
2019-06-10T06:03:04.485Z,100676.88
2019-06-10T06:05:38.096Z,100679.83
2019-06-10T06:08:12.552Z,100674.05
2019-06-10T06:10:45.772Z,100681.80
2019-06-10T06:13:19.995Z,100679.19
2019-06-10T06:15:52.905Z,100678.13
2019-06-10T06:18:25.943Z,100671.64
2019-06-10T06:21:20.104Z,100670.78
2019-06-10T06:23:37.086Z,100673.30
2019-06-10T06:26:15.855Z,100678.80
2019-06-10T06:28:45.613Z,100676.25
2019-06-10T06:31:18.726Z,100675.87
2019-06-10T06:33:52.644Z,100679.08
2019-06-10T06:36:26.594Z,100680.19
2019-06-10T06:39:02.173Z,100679.11
2019-06-10T06:41:37.628Z,100677.64
2019-06-10T06:44:12.965Z,100680.63
2019-06-10T06:46:45.948Z,100687.71
2019-06-10T06:49:19.081Z,100682.93
2019-06-10T06:51:58.308Z,100685.31
2019-06-10T06:54:27.038Z,100680.13
2019-06-10T06:57:03.280Z,100676.88
2019-06-10T06:59:37.369Z,100679.72
2019-06-10T07:02:12.487Z,100678.84
2019-06-10T07:04:45.604Z,100676.63
2019-06-10T07:07:18.674Z,100675.80
2019-06-10T07:09:52.675Z,100677.52
2019-06-10T07:12:25.869Z,100674.63
2019-06-10T07:14:59.048Z,100679.17
2019-06-10T07:17:34.587Z,100674.73
2019-06-10T07:20:07.907Z,100671.70
2019-06-10T07:22:46.549Z,100677.81
2019-06-10T07:25:22.850Z,100672.62
2019-06-10T07:27:55.010Z,100676.48
2019-06-10T07:30:28.391Z,100670.81
2019-06-10T07:33:02.957Z,100671.20
2019-06-10T07:35:37.296Z,100666.41
2019-06-10T07:38:12.203Z,100671.98
2019-06-10T07:40:46.281Z,100669.51
2019-06-10T07:43:19.520Z,100671.25
2019-06-10T07:45:53.423Z,100667.48
2019-06-10T07:48:26.726Z,100665.98
2019-06-10T07:51:02.573Z,100664.44
2019-06-10T07:53:36.510Z,100656.73
2019-06-10T07:56:12.889Z,100655.36
2019-06-10T07:58:47.697Z,100656.12
2019-06-10T08:01:23.062Z,100654.57
2019-06-10T08:03:55.835Z,100655.99
2019-06-10T08:06:29.037Z,100655.53
2019-06-10T08:09:02.373Z,100645.59
2019-06-10T08:11:39.327Z,100651.21
2019-06-10T08:14:13.113Z,100645.48
2019-06-10T08:16:46.765Z,100643.17
2019-06-10T08:19:31.510Z,100644.66
2019-06-10T08:21:56.357Z,100644.66
2019-06-10T08:24:29.699Z,100639.91
2019-06-10T08:27:04.424Z,100638.21
2019-06-10T08:29:38.667Z,100639.23
2019-06-10T08:32:13.099Z,100645.05
2019-06-10T08:34:48.030Z,100640.77
2019-06-10T08:37:23.462Z,100640.32
2019-06-10T08:39:56.781Z,100639.55
2019-06-10T08:42:32.247Z,100636.78
2019-06-10T08:45:05.115Z,100640.43
2019-06-10T08:47:39.280Z,100632.36
2019-06-10T08:50:12.946Z,100629.70
2019-06-10T08:53:03.301Z,100628.05
2019-06-10T08:55:23.716Z,100625.25
2019-06-10T08:57:57.053Z,100602.20
2019-06-10T09:00:30.195Z,100620.00
2019-06-10T09:03:04.196Z,100628.06
2019-06-10T09:05:38.775Z,100613.19
2019-06-10T09:08:13.072Z,100609.59
2019-06-10T09:10:49.864Z,100601.84
2019-06-10T09:13:22.479Z,100602.08
2019-06-10T09:16:11.113Z,100612.27
2019-06-10T09:18:30.402Z,100606.45
2019-06-10T09:21:05.181Z,100605.44
2019-06-10T09:23:39.605Z,100602.64
2019-06-10T09:26:13.410Z,100607.55
2019-06-10T09:28:52.407Z,100603.14
2019-06-10T09:31:23.863Z,100594.67
2019-06-10T09:33:57.142Z,100598.42
2019-06-10T09:36:32.400Z,100598.43
2019-06-10T09:39:06.367Z,100599.02
2019-06-10T09:41:43.121Z,100585.40
2019-06-10T09:44:14.343Z,100585.91
2019-06-10T09:46:50.409Z,100585.75
2019-06-10T09:49:22.676Z,100578.86
2019-06-10T09:51:57.610Z,100581.30
2019-06-10T09:54:33.705Z,100578.47
2019-06-10T09:57:06.970Z,100576.24
2019-06-10T09:59:41.351Z,100576.08
2019-06-10T10:02:15.160Z,100562.71
2019-06-10T10:04:52.538Z,100568.70
2019-06-10T10:07:23.669Z,100574.13
2019-06-10T10:09:57.761Z,100573.63
2019-06-10T10:12:32.711Z,100569.98
2019-06-10T10:15:22.655Z,100570.73
2019-06-10T10:17:47.436Z,100561.95
2019-06-10T10:20:18.324Z,100563.92
2019-06-10T10:22:55.125Z,100555.06
2019-06-10T10:25:28.372Z,100559.05
2019-06-10T10:28:03.201Z,100549.91
2019-06-10T10:30:36.456Z,100547.11
2019-06-10T10:33:12.661Z,100545.66
2019-06-10T10:35:46.373Z,100545.84
2019-06-10T10:38:22.887Z,100543.48
2019-06-10T10:40:58.873Z,100538.49
2019-06-10T10:43:34.094Z,100532.05
2019-06-10T10:46:06.120Z,100534.34
2019-06-10T10:48:39.403Z,100533.42
2019-06-10T10:51:13.224Z,100527.23
2019-06-10T10:53:51.476Z,100519.63
2019-06-10T10:56:22.322Z,100519.67
2019-06-10T10:58:58.533Z,100523.47
2019-06-10T11:01:33.413Z,100513.31
2019-06-10T11:04:06.758Z,100520.67
2019-06-10T11:06:39.955Z,100519.56
2019-06-10T11:09:13.238Z,100515.34
2019-06-10T11:11:47.218Z,100512.27
2019-06-10T11:14:22.879Z,100506.89
2019-06-10T11:16:59.005Z,100507.10
2019-06-10T11:19:33.013Z,100506.58
2019-06-10T11:22:06.184Z,100506.27
2019-06-10T11:24:42.075Z,100506.41
2019-06-10T11:27:14.341Z,100512.15
2019-06-10T11:29:48.174Z,100495.28
2019-06-10T11:32:21.176Z,100497.00
2019-06-10T11:34:56.967Z,100503.23
2019-06-10T11:37:29.174Z,100493.34
2019-06-10T11:40:02.935Z,100493.20
2019-06-10T11:42:36.052Z,100487.84
2019-06-10T11:45:09.461Z,100485.55
2019-06-10T11:47:42.705Z,100488.17
2019-06-10T11:50:16.045Z,100481.63
2019-06-10T11:52:49.692Z,100480.11
2019-06-10T11:55:24.210Z,100477.81
2019-06-10T11:57:58.173Z,100468.09
2019-06-10T12:00:33.243Z,100462.88
2019-06-10T12:03:07.383Z,100457.00
2019-06-10T12:05:40.599Z,100455.94
2019-06-10T12:08:13.832Z,100452.58
2019-06-10T12:10:46.945Z,100451.81
2019-06-10T12:13:22.460Z,100456.95
2019-06-10T12:16:49.437Z,100453.45
2019-06-10T12:18:29.829Z,100451.94
2019-06-10T12:21:03.841Z,100462.05
2019-06-10T12:23:37.079Z,100449.58
2019-06-10T12:26:10.168Z,100443.31
2019-06-10T12:28:43.424Z,100441.00
2019-06-10T12:31:17.056Z,100442.66
2019-06-10T12:33:50.584Z,100441.08
2019-06-10T12:36:24.124Z,100435.41
2019-06-10T12:39:02.444Z,100433.31
2019-06-10T12:41:33.323Z,100432.68
2019-06-10T12:44:06.695Z,100434.91
2019-06-10T12:46:39.935Z,100432.69
2019-06-10T12:49:18.318Z,100434.84
2019-06-10T12:51:49.532Z,100430.16
2019-06-10T12:54:22.670Z,100421.18
2019-06-10T12:56:58.063Z,100421.11
2019-06-10T12:59:32.463Z,100419.31
2019-06-10T13:02:18.196Z,100423.01
2019-06-10T13:04:42.879Z,100418.55
2019-06-10T13:07:16.155Z,100412.55
2019-06-10T13:09:48.554Z,100414.28
2019-06-10T13:12:22.953Z,100411.19
2019-06-10T13:14:56.342Z,100413.33
2019-06-10T13:17:29.418Z,100408.84
2019-06-10T13:20:06.170Z,100408.52
2019-06-10T13:22:37.466Z,100408.13
2019-06-10T13:25:13.347Z,100410.25
2019-06-10T13:27:45.710Z,100405.70
2019-06-10T13:30:19.133Z,100407.11
2019-06-10T13:32:52.755Z,100402.61
2019-06-10T13:35:25.824Z,100408.49
2019-06-10T13:37:59.086Z,100401.50
2019-06-10T13:40:32.238Z,100402.82
2019-06-10T13:43:06.027Z,100377.68
2019-06-10T13:45:39.364Z,100377.68
2019-06-10T13:48:14.974Z,100392.42
2019-06-10T13:50:47.360Z,100392.94
2019-06-10T13:53:20.577Z,100394.32
2019-06-10T13:56:14.358Z,100390.16
2019-06-10T13:58:28.460Z,100390.36
2019-06-10T14:01:04.647Z,100379.05
2019-06-10T14:03:36.543Z,100380.77
2019-06-10T14:06:28.408Z,100379.19
2019-06-10T14:08:46.033Z,100374.44
2019-06-10T14:11:19.599Z,100367.02
2019-06-10T14:13:53.928Z,100373.70
2019-06-10T14:16:27.003Z,100364.82
2019-06-10T14:19:01.438Z,100368.84
2019-06-10T14:21:34.801Z,100365.56
2019-06-10T14:24:08.235Z,100358.41
2019-06-10T14:26:45.452Z,100366.55
2019-06-10T14:29:17.464Z,100360.75
2019-06-10T14:31:53.064Z,100362.76
2019-06-10T14:34:25.531Z,100358.06
2019-06-10T14:36:58.603Z,100354.08
2019-06-10T14:39:32.949Z,100354.22
2019-06-10T14:42:06.958Z,100357.08
2019-06-10T14:44:42.107Z,100359.09
2019-06-10T14:47:16.871Z,100353.95
2019-06-10T14:49:50.146Z,100358.31
2019-06-10T14:52:23.194Z,100350.73
2019-06-10T14:54:57.650Z,100349.23
2019-06-10T14:57:33.312Z,100356.56
2019-06-10T15:00:07.626Z,100350.30
2019-06-10T15:02:42.968Z,100353.20
2019-06-10T15:05:17.545Z,100355.75
2019-06-10T15:07:52.893Z,100359.05
2019-06-10T15:10:25.688Z,100365.70
2019-06-10T15:12:58.876Z,100356.16
2019-06-10T15:15:33.036Z,100369.84
2019-06-10T15:18:07.654Z,100358.97
2019-06-10T15:20:45.244Z,100356.69
2019-06-10T15:23:19.125Z,100356.25
2019-06-10T15:25:57.033Z,100358.62
2019-06-10T15:28:29.031Z,100360.42
2019-06-10T15:31:03.022Z,100362.53
2019-06-10T15:33:37.155Z,100360.31
2019-06-10T15:36:11.212Z,100365.80
2019-06-10T15:38:44.407Z,100367.98
2019-06-10T15:41:19.929Z,100360.84
2019-06-10T15:43:55.417Z,100355.97
2019-06-10T15:46:32.234Z,100354.95
2019-06-10T15:49:04.893Z,100360.11
2019-06-10T15:51:37.933Z,100361.69
2019-06-10T15:54:15.355Z,100356.54
2019-06-10T15:56:52.674Z,100359.08
2019-06-10T15:59:21.461Z,100355.66
2019-06-10T16:01:54.051Z,100358.50
2019-06-10T16:04:29.766Z,100357.98
2019-06-10T16:07:02.530Z,100355.32
2019-06-10T16:09:35.949Z,100349.68
2019-06-10T16:12:09.058Z,100350.02
2019-06-10T16:14:42.535Z,100345.52
2019-06-10T16:17:17.364Z,100348.02
2019-06-10T16:19:52.999Z,100347.64
2019-06-10T16:22:26.330Z,100344.47
2019-06-10T16:24:59.427Z,100338.18
2019-06-10T16:27:46.367Z,100342.13
2019-06-10T16:30:09.523Z,100345.92
2019-06-10T16:32:46.173Z,100337.57
2019-06-10T16:35:18.840Z,100340.78
2019-06-10T16:37:54.573Z,100336.75
2019-06-10T16:40:27.287Z,100342.83
2019-06-10T16:43:00.446Z,100337.95
2019-06-10T16:45:34.503Z,100335.77
2019-06-10T16:48:07.675Z,100341.34
2019-06-10T16:50:42.607Z,100336.52
2019-06-10T16:53:15.579Z,100346.15
2019-06-10T16:55:48.660Z,100342.12
2019-06-10T16:58:26.201Z,100338.20
2019-06-10T17:00:56.601Z,100334.27
2019-06-10T17:03:31.356Z,100343.30
2019-06-10T17:06:05.106Z,100344.26
2019-06-10T17:08:39.323Z,100346.77
2019-06-10T17:11:12.614Z,100340.08
2019-06-10T17:13:45.767Z,100353.21
2019-06-10T17:16:20.216Z,100351.87
2019-06-10T17:18:53.754Z,100350.16
2019-06-10T17:21:30.403Z,100352.73
2019-06-10T17:24:03.446Z,100357.23
2019-06-10T17:26:38.296Z,100353.22
2019-06-10T17:29:11.316Z,100330.59
2019-06-10T17:31:44.514Z,100345.63
2019-06-10T17:34:20.533Z,100348.13
2019-06-10T17:36:53.772Z,100351.27
2019-06-10T17:39:28.611Z,100357.42
2019-06-10T17:42:01.932Z,100360.02
2019-06-10T17:44:35.050Z,100360.19
2019-06-10T17:47:08.196Z,100354.06
2019-06-10T17:49:41.984Z,100363.91
2019-06-10T17:52:15.225Z,100362.86
2019-06-10T17:54:48.555Z,100364.20
2019-06-10T17:57:23.508Z,100367.41
2019-06-10T17:59:56.441Z,100370.58
2019-06-10T18:02:29.580Z,100382.25
2019-06-10T18:05:05.884Z,100383.88
2019-06-10T18:07:39.041Z,100382.13
2019-06-10T18:10:13.242Z,100376.00
2019-06-10T18:12:46.504Z,100374.94
2019-06-10T18:15:22.079Z,100376.64
2019-06-10T18:17:55.956Z,100378.91
2019-06-10T18:20:29.046Z,100388.58
2019-06-10T18:23:02.733Z,100390.17
2019-06-10T18:25:36.897Z,100387.67
2019-06-10T18:28:09.214Z,100393.23
2019-06-10T18:30:43.484Z,100392.69
2019-06-10T18:33:16.835Z,100395.36
2019-06-10T18:35:50.038Z,100393.54
2019-06-10T18:38:23.390Z,100395.89
2019-06-10T18:40:56.591Z,100400.58
2019-06-10T18:43:32.132Z,100399.30
2019-06-10T18:46:04.819Z,100400.11
2019-06-10T18:48:38.562Z,100396.98
2019-06-10T18:51:12.688Z,100393.40
2019-06-10T18:53:45.871Z,100395.20
2019-06-10T18:56:19.130Z,100395.47
2019-06-10T18:58:53.052Z,100395.48
2019-06-10T19:01:26.295Z,100394.09
2019-06-10T19:03:59.420Z,100397.23
2019-06-10T19:06:33.850Z,100396.41
2019-06-10T19:09:08.831Z,100398.73
2019-06-10T19:11:43.386Z,100396.80
2019-06-10T19:14:17.665Z,100397.23
2019-06-10T19:16:52.434Z,100394.94
2019-06-10T19:19:25.553Z,100398.83
2019-06-10T19:22:05.171Z,100392.89
2019-06-10T19:24:36.324Z,100399.98
2019-06-10T19:27:08.497Z,100405.09
2019-06-10T19:29:50.773Z,100398.17
2019-06-10T19:32:17.916Z,100399.24
2019-06-10T19:34:52.084Z,100401.06
2019-06-10T19:37:24.557Z,100406.70
2019-06-10T19:39:57.569Z,100400.78
2019-06-10T19:42:32.962Z,100398.59
2019-06-10T19:45:07.567Z,100398.54
2019-06-10T19:47:41.404Z,100398.86
2019-06-10T19:50:15.349Z,100400.09
2019-06-10T19:52:48.421Z,100401.98
2019-06-10T19:55:23.344Z,100401.98
2019-06-10T19:57:56.533Z,100396.68
2019-06-10T20:00:29.957Z,100395.25
2019-06-10T20:03:03.178Z,100399.97
2019-06-10T20:05:38.019Z,100405.28
2019-06-10T20:08:12.127Z,100400.98
2019-06-10T20:10:44.632Z,100391.62
2019-06-10T20:13:18.611Z,100402.98
2019-06-10T20:15:52.496Z,100402.00
2019-06-10T20:18:25.711Z,100403.43
2019-06-10T20:20:58.775Z,100394.95
2019-06-10T20:23:33.323Z,100396.59
2019-06-10T20:26:06.535Z,100395.30
2019-06-10T20:28:40.683Z,100399.59
2019-06-10T20:31:14.380Z,100396.06
2019-06-10T20:33:47.673Z,100390.47
2019-06-10T20:36:25.671Z,100385.51
2019-06-10T20:38:55.626Z,100383.86
2019-06-10T20:41:28.752Z,100389.27
2019-06-10T20:44:03.759Z,100386.83
2019-06-10T20:46:36.890Z,100377.33
2019-06-10T20:49:09.964Z,100383.18
2019-06-10T20:52:00.578Z,100386.80
2019-06-10T20:54:17.895Z,100385.05
2019-06-10T20:56:53.367Z,100387.58
2019-06-10T20:59:26.302Z,100384.48
2019-06-10T21:01:59.431Z,100380.31
2019-06-10T21:04:32.618Z,100385.26
2019-06-10T21:07:05.813Z,100376.55
2019-06-10T21:09:40.064Z,100374.33
2019-06-10T21:12:13.321Z,100373.00
2019-06-10T21:14:47.223Z,100373.98
2019-06-10T21:17:22.962Z,100372.64
2019-06-10T21:19:56.169Z,100379.80
2019-06-10T21:22:32.487Z,100382.65
2019-06-10T21:25:05.456Z,100386.28
2019-06-10T21:27:38.674Z,100391.34
2019-06-10T21:30:13.496Z,100399.91
2019-06-10T21:32:48.681Z,100400.58
2019-06-10T21:35:22.136Z,100392.08
2019-06-10T21:37:55.242Z,100386.12
2019-06-10T21:40:28.424Z,100388.06
2019-06-10T21:43:02.813Z,100385.61
2019-06-10T21:45:36.240Z,100387.78
2019-06-10T21:48:09.567Z,100380.73
2019-06-10T21:50:45.236Z,100380.92
2019-06-10T21:53:17.914Z,100380.81
2019-06-10T21:55:53.537Z,100382.09
2019-06-10T21:58:26.239Z,100384.14
2019-06-10T22:01:11.633Z,100379.70
2019-06-10T22:03:34.250Z,100380.42
2019-06-10T22:06:07.374Z,100394.66
2019-06-10T22:08:42.486Z,100382.67
2019-06-10T22:11:15.203Z,100387.61
2019-06-10T22:13:50.767Z,100374.65
2019-06-10T22:16:24.561Z,100385.81
2019-06-10T22:18:57.764Z,100383.05
2019-06-10T22:21:32.589Z,100376.09
2019-06-10T22:24:05.836Z,100380.03
2019-06-10T22:26:38.971Z,100388.31
2019-06-10T22:29:12.650Z,100385.40
2019-06-10T22:31:47.173Z,100377.98
2019-06-10T22:34:22.765Z,100383.48
2019-06-10T22:36:56.188Z,100381.59
2019-06-10T22:39:29.756Z,100382.13
2019-06-10T22:42:03.249Z,100376.97
2019-06-10T22:44:36.315Z,100374.17
2019-06-10T22:47:09.357Z,100372.45
2019-06-10T22:49:43.252Z,100372.03
2019-06-10T22:52:16.449Z,100377.39
2019-06-10T22:54:49.720Z,100382.44
2019-06-10T22:57:22.762Z,100379.20
2019-06-10T22:59:57.388Z,100385.33
2019-06-10T23:02:33.219Z,100372.03
2019-06-10T23:05:07.501Z,100379.05
2019-06-10T23:07:40.711Z,100382.95
2019-06-10T23:10:13.861Z,100379.39
2019-06-10T23:12:46.965Z,100383.83
2019-06-10T23:15:20.125Z,100382.44
2019-06-10T23:17:55.427Z,100381.59
2019-06-10T23:20:28.071Z,100379.24
2019-06-10T23:23:03.162Z,100369.15
2019-06-10T23:25:35.954Z,100370.22
2019-06-10T23:28:09.148Z,100373.84
2019-06-10T23:30:42.826Z,100366.95
2019-06-10T23:33:16.417Z,100370.84
2019-06-10T23:35:50.307Z,100371.00
2019-06-10T23:38:23.746Z,100365.06
2019-06-10T23:40:57.110Z,100367.41
2019-06-10T23:43:30.218Z,100362.55
2019-06-10T23:46:04.578Z,100361.77
2019-06-10T23:48:37.735Z,100357.42
2019-06-10T23:51:12.136Z,100357.18
2019-06-10T23:53:46.820Z,100356.17
2019-06-10T23:56:21.971Z,100352.94
2019-06-10T23:58:58.393Z,100350.51
